sensor_id;sensor_type;location;lat;lon;timestamp;pressure;altitude;pressure_sealevel;temperature;humidity
29045;BME280;16133;49.486;12.176;2022-07-03T00:00:09;97729.41;;;11.78;100.00
29045;BME280;16133;49.486;12.176;2022-07-03T00:02:35;97729.31;;;11.71;100.00
29045;BME280;16133;49.486;12.176;2022-07-03T00:05:00;97721.84;;;11.67;100.00
29045;BME280;16133;49.486;12.176;2022-07-03T00:07:26;97725.84;;;11.63;100.00
29045;BME280;16133;49.486;12.176;2022-07-03T00:09:51;97729.69;;;11.60;100.00
29045;BME280;16133;49.486;12.176;2022-07-03T00:12:17;97728.22;;;11.58;100.00
29045;BME280;16133;49.486;12.176;2022-07-03T00:14:42;97722.88;;;11.58;100.00
29045;BME280;16133;49.486;12.176;2022-07-03T00:17:08;97727.41;;;11.57;100.00
29045;BME280;16133;49.486;12.176;2022-07-03T00:19:33;97717.78;;;11.56;100.00
29045;BME280;16133;49.486;12.176;2022-07-03T00:22:04;97716.47;;;11.52;100.00
29045;BME280;16133;49.486;12.176;2022-07-03T00:24:33;97713.34;;;11.48;100.00
29045;BME280;16133;49.486;12.176;2022-07-03T00:27:01;97709.19;;;11.46;100.00
29045;BME280;16133;49.486;12.176;2022-07-03T00:29:32;97713.25;;;11.42;100.00
29045;BME280;16133;49.486;12.176;2022-07-03T00:32:01;97716.41;;;11.37;100.00
29045;BME280;16133;49.486;12.176;2022-07-03T00:34:28;97708.81;;;11.34;100.00
29045;BME280;16133;49.486;12.176;2022-07-03T00:36:56;97710.16;;;11.30;100.00
29045;BME280;16133;49.486;12.176;2022-07-03T00:39:22;97708.66;;;11.28;100.00
29045;BME280;16133;49.486;12.176;2022-07-03T00:41:59;97706.38;;;11.25;100.00
29045;BME280;16133;49.486;12.176;2022-07-03T00:44:25;97710.03;;;11.24;100.00
29045;BME280;16133;49.486;12.176;2022-07-03T00:46:52;97706.72;;;11.22;100.00
29045;BME280;16133;49.486;12.176;2022-07-03T00:49:20;97711.38;;;11.20;100.00
29045;BME280;16133;49.486;12.176;2022-07-03T00:51:51;97702.78;;;11.18;100.00
29045;BME280;16133;49.486;12.176;2022-07-03T00:54:20;97700.47;;;11.15;100.00
29045;BME280;16133;49.486;12.176;2022-07-03T00:56:51;97703.47;;;11.12;100.00
29045;BME280;16133;49.486;12.176;2022-07-03T00:59:19;97700.00;;;11.11;100.00
29045;BME280;16133;49.486;12.176;2022-07-03T01:01:47;97692.38;;;11.08;100.00
29045;BME280;16133;49.486;12.176;2022-07-03T01:07:33;97703.69;;;11.02;100.00
29045;BME280;16133;49.486;12.176;2022-07-03T01:13:21;97701.75;;;10.96;100.00
29045;BME280;16133;49.486;12.176;2022-07-03T01:15:52;97700.44;;;10.92;100.00
29045;BME280;16133;49.486;12.176;2022-07-03T01:18:35;97701.59;;;10.89;100.00
29045;BME280;16133;49.486;12.176;2022-07-03T01:26:28;97694.03;;;10.78;100.00
29045;BME280;16133;49.486;12.176;2022-07-03T01:28:59;97696.22;;;10.75;100.00
29045;BME280;16133;49.486;12.176;2022-07-03T01:31:28;97694.53;;;10.74;100.00
29045;BME280;16133;49.486;12.176;2022-07-03T01:33:55;97689.78;;;10.69;100.00
29045;BME280;16133;49.486;12.176;2022-07-03T01:36:23;97690.31;;;10.65;100.00
29045;BME280;16133;49.486;12.176;2022-07-03T01:38:50;97680.19;;;10.60;100.00
29045;BME280;16133;49.486;12.176;2022-07-03T01:41:16;97677.91;;;10.57;100.00
29045;BME280;16133;49.486;12.176;2022-07-03T01:43:56;97683.38;;;10.55;100.00
29045;BME280;16133;49.486;12.176;2022-07-03T01:46:31;97671.28;;;10.53;100.00
29045;BME280;16133;49.486;12.176;2022-07-03T01:48:58;97675.91;;;10.51;100.00
29045;BME280;16133;49.486;12.176;2022-07-03T01:51:25;97674.28;;;10.50;100.00
29045;BME280;16133;49.486;12.176;2022-07-03T01:53:51;97670.97;;;10.48;100.00
29045;BME280;16133;49.486;12.176;2022-07-03T01:59:39;97664.69;;;10.41;100.00
29045;BME280;16133;49.486;12.176;2022-07-03T02:02:24;97662.03;;;10.41;100.00
29045;BME280;16133;49.486;12.176;2022-07-03T02:05:03;97665.69;;;10.40;100.00
29045;BME280;16133;49.486;12.176;2022-07-03T02:07:47;97663.38;;;10.37;100.00
29045;BME280;16133;49.486;12.176;2022-07-03T02:10:16;97664.72;;;10.33;100.00
29045;BME280;16133;49.486;12.176;2022-07-03T02:12:47;97661.75;;;10.28;100.00
29045;BME280;16133;49.486;12.176;2022-07-03T02:15:17;97665.59;;;10.25;100.00
29045;BME280;16133;49.486;12.176;2022-07-03T02:17:45;97666.75;;;10.23;100.00
29045;BME280;16133;49.486;12.176;2022-07-03T02:20:12;97669.72;;;10.20;100.00
29045;BME280;16133;49.486;12.176;2022-07-03T02:25:08;97661.28;;;10.16;100.00
29045;BME280;16133;49.486;12.176;2022-07-03T02:27:50;97660.63;;;10.14;100.00
29045;BME280;16133;49.486;12.176;2022-07-03T02:30:17;97669.75;;;10.12;100.00
29045;BME280;16133;49.486;12.176;2022-07-03T02:32:48;97666.44;;;10.09;100.00
29045;BME280;16133;49.486;12.176;2022-07-03T02:35:31;97659.47;;;10.08;100.00
29045;BME280;16133;49.486;12.176;2022-07-03T02:38:08;97651.69;;;10.07;100.00
29045;BME280;16133;49.486;12.176;2022-07-03T02:40:42;97652.03;;;10.04;100.00
29045;BME280;16133;49.486;12.176;2022-07-03T02:43:36;97651.38;;;10.02;100.00
29045;BME280;16133;49.486;12.176;2022-07-03T02:46:18;97651.53;;;10.00;100.00
29045;BME280;16133;49.486;12.176;2022-07-03T02:51:44;97655.03;;;9.93;100.00
29045;BME280;16133;49.486;12.176;2022-07-03T02:54:14;97659.84;;;9.89;100.00
29045;BME280;16133;49.486;12.176;2022-07-03T02:57:22;97653.06;;;9.87;100.00
29045;BME280;16133;49.486;12.176;2022-07-03T03:00:12;97651.59;;;9.84;100.00
29045;BME280;16133;49.486;12.176;2022-07-03T03:05:21;97649.44;;;9.80;100.00
29045;BME280;16133;49.486;12.176;2022-07-03T03:10:35;97650.63;;;9.77;100.00
29045;BME280;16133;49.486;12.176;2022-07-03T03:13:11;97654.25;;;9.76;100.00
29045;BME280;16133;49.486;12.176;2022-07-03T03:15:38;97657.06;;;9.75;100.00
29045;BME280;16133;49.486;12.176;2022-07-03T03:18:11;97649.28;;;9.73;100.00
29045;BME280;16133;49.486;12.176;2022-07-03T03:20:38;97663.53;;;9.72;100.00
29045;BME280;16133;49.486;12.176;2022-07-03T03:25:45;97660.06;;;9.72;100.00
29045;BME280;16133;49.486;12.176;2022-07-03T03:28:12;97658.22;;;9.72;100.00
29045;BME280;16133;49.486;12.176;2022-07-03T03:30:38;97663.53;;;9.72;100.00
29045;BME280;16133;49.486;12.176;2022-07-03T03:33:07;97658.72;;;9.76;100.00
29045;BME280;16133;49.486;12.176;2022-07-03T03:35:37;97652.25;;;9.78;100.00
29045;BME280;16133;49.486;12.176;2022-07-03T03:38:03;97666.81;;;9.82;100.00
29045;BME280;16133;49.486;12.176;2022-07-03T03:40:29;97666.66;;;9.84;100.00
29045;BME280;16133;49.486;12.176;2022-07-03T03:42:56;97672.78;;;9.84;100.00
29045;BME280;16133;49.486;12.176;2022-07-03T03:47:57;97676.09;;;9.86;100.00
29045;BME280;16133;49.486;12.176;2022-07-03T03:50:23;97680.41;;;9.87;100.00
29045;BME280;16133;49.486;12.176;2022-07-03T03:52:48;97683.69;;;9.89;100.00
29045;BME280;16133;49.486;12.176;2022-07-03T03:55:14;97680.72;;;9.92;100.00
29045;BME280;16133;49.486;12.176;2022-07-03T03:57:39;97686.53;;;9.96;100.00
29045;BME280;16133;49.486;12.176;2022-07-03T04:00:05;97680.69;;;10.00;100.00
29045;BME280;16133;49.486;12.176;2022-07-03T04:02:31;97684.66;;;10.04;100.00
29045;BME280;16133;49.486;12.176;2022-07-03T04:04:56;97686.81;;;10.09;100.00
29045;BME280;16133;49.486;12.176;2022-07-03T04:07:22;97682.69;;;10.15;100.00
29045;BME280;16133;49.486;12.176;2022-07-03T04:09:47;97683.00;;;10.20;100.00
29045;BME280;16133;49.486;12.176;2022-07-03T04:12:13;97692.75;;;10.27;100.00
29045;BME280;16133;49.486;12.176;2022-07-03T04:14:39;97686.63;;;10.35;100.00
29045;BME280;16133;49.486;12.176;2022-07-03T04:17:04;97684.75;;;10.43;100.00
29045;BME280;16133;49.486;12.176;2022-07-03T04:19:30;97681.91;;;10.53;100.00
29045;BME280;16133;49.486;12.176;2022-07-03T04:21:56;97683.50;;;10.62;100.00
29045;BME280;16133;49.486;12.176;2022-07-03T04:24:21;97686.59;;;10.74;100.00
29045;BME280;16133;49.486;12.176;2022-07-03T04:26:47;97678.22;;;10.85;100.00
29045;BME280;16133;49.486;12.176;2022-07-03T04:29:12;97685.00;;;10.95;100.00
29045;BME280;16133;49.486;12.176;2022-07-03T04:31:38;97688.91;;;11.08;100.00
29045;BME280;16133;49.486;12.176;2022-07-03T04:34:03;97691.94;;;11.19;100.00
29045;BME280;16133;49.486;12.176;2022-07-03T04:36:29;97684.41;;;11.31;100.00
29045;BME280;16133;49.486;12.176;2022-07-03T04:38:54;97697.94;;;11.44;100.00
29045;BME280;16133;49.486;12.176;2022-07-03T04:41:19;97686.50;;;11.58;100.00
29045;BME280;16133;49.486;12.176;2022-07-03T04:43:45;97690.91;;;11.74;100.00
29045;BME280;16133;49.486;12.176;2022-07-03T04:46:10;97688.25;;;11.88;100.00
29045;BME280;16133;49.486;12.176;2022-07-03T04:48:36;97684.44;;;12.06;100.00
29045;BME280;16133;49.486;12.176;2022-07-03T04:51:01;97695.75;;;12.22;100.00
29045;BME280;16133;49.486;12.176;2022-07-03T04:53:26;97699.69;;;12.41;100.00
29045;BME280;16133;49.486;12.176;2022-07-03T04:55:52;97700.78;;;12.61;100.00
29045;BME280;16133;49.486;12.176;2022-07-03T04:58:18;97701.47;;;12.84;100.00
29045;BME280;16133;49.486;12.176;2022-07-03T05:00:44;97705.56;;;13.16;100.00
29045;BME280;16133;49.486;12.176;2022-07-03T05:03:10;97715.44;;;13.58;100.00
29045;BME280;16133;49.486;12.176;2022-07-03T05:05:36;97706.66;;;14.13;100.00
29045;BME280;16133;49.486;12.176;2022-07-03T05:08:01;97711.44;;;14.87;100.00
29045;BME280;16133;49.486;12.176;2022-07-03T05:10:27;97694.00;;;15.71;100.00
29045;BME280;16133;49.486;12.176;2022-07-03T05:12:53;97721.06;;;16.80;100.00
29045;BME280;16133;49.486;12.176;2022-07-03T05:15:18;97720.72;;;17.90;93.70
29045;BME280;16133;49.486;12.176;2022-07-03T05:17:44;97722.56;;;19.00;86.45
29045;BME280;16133;49.486;12.176;2022-07-03T05:20:10;97729.75;;;19.95;79.20
29045;BME280;16133;49.486;12.176;2022-07-03T05:22:54;97721.47;;;20.90;70.35
29045;BME280;16133;49.486;12.176;2022-07-03T05:25:20;97721.88;;;21.62;65.73
29045;BME280;16133;49.486;12.176;2022-07-03T05:27:46;97726.63;;;22.33;61.45
29045;BME280;16133;49.486;12.176;2022-07-03T05:30:12;97729.09;;;22.90;58.80
29045;BME280;16133;49.486;12.176;2022-07-03T05:32:39;97732.78;;;23.44;56.42
29045;BME280;16133;49.486;12.176;2022-07-03T05:35:05;97729.84;;;23.99;54.68
29045;BME280;16133;49.486;12.176;2022-07-03T05:37:30;97733.69;;;24.35;52.15
29045;BME280;16133;49.486;12.176;2022-07-03T05:39:56;97739.84;;;24.62;51.44
29045;BME280;16133;49.486;12.176;2022-07-03T05:42:21;97711.66;;;24.63;50.48
29045;BME280;16133;49.486;12.176;2022-07-03T05:44:47;97736.81;;;24.95;50.83
29045;BME280;16133;49.486;12.176;2022-07-03T05:47:12;97726.94;;;25.21;50.28
29045;BME280;16133;49.486;12.176;2022-07-03T05:49:37;97724.75;;;25.23;48.75
29045;BME280;16133;49.486;12.176;2022-07-03T05:52:03;97726.69;;;25.38;48.68
29045;BME280;16133;49.486;12.176;2022-07-03T05:54:28;97728.16;;;25.55;48.46
29045;BME280;16133;49.486;12.176;2022-07-03T05:56:54;97724.66;;;25.60;47.25
29045;BME280;16133;49.486;12.176;2022-07-03T05:59:19;97725.75;;;25.74;47.47
29045;BME280;16133;49.486;12.176;2022-07-03T06:01:45;97727.94;;;25.77;47.20
29045;BME280;16133;49.486;12.176;2022-07-03T06:04:10;97715.44;;;25.91;47.39
29045;BME280;16133;49.486;12.176;2022-07-03T06:06:35;97711.66;;;25.97;46.84
29045;BME280;16133;49.486;12.176;2022-07-03T06:09:01;97714.94;;;26.09;46.71
29045;BME280;16133;49.486;12.176;2022-07-03T06:11:26;97712.81;;;26.22;46.09
29045;BME280;16133;49.486;12.176;2022-07-03T06:13:51;97708.44;;;26.41;46.14
29045;BME280;16133;49.486;12.176;2022-07-03T06:16:17;97716.81;;;26.70;46.28
29045;BME280;16133;49.486;12.176;2022-07-03T06:18:43;97723.03;;;26.95;44.71
29045;BME280;16133;49.486;12.176;2022-07-03T06:21:09;97713.47;;;27.08;44.68
29045;BME280;16133;49.486;12.176;2022-07-03T06:23:34;97716.91;;;27.34;44.01
29045;BME280;16133;49.486;12.176;2022-07-03T06:26:00;97718.50;;;27.45;44.07
29045;BME280;16133;49.486;12.176;2022-07-03T06:28:26;97714.91;;;27.60;43.27
29045;BME280;16133;49.486;12.176;2022-07-03T06:30:51;97720.91;;;27.62;43.14
29045;BME280;16133;49.486;12.176;2022-07-03T06:33:17;97720.19;;;27.36;43.93
29045;BME280;16133;49.486;12.176;2022-07-03T06:35:43;97716.72;;;27.10;45.06
29045;BME280;16133;49.486;12.176;2022-07-03T06:38:08;97712.97;;;26.81;44.90
29045;BME280;16133;49.486;12.176;2022-07-03T06:40:34;97713.31;;;26.59;45.41
29045;BME280;16133;49.486;12.176;2022-07-03T06:42:59;97713.84;;;26.26;45.69
29045;BME280;16133;49.486;12.176;2022-07-03T06:45:24;97704.53;;;25.76;46.93
29045;BME280;16133;49.486;12.176;2022-07-03T06:47:50;97716.44;;;25.45;47.47
29045;BME280;16133;49.486;12.176;2022-07-03T06:50:15;97701.69;;;25.31;47.81
29045;BME280;16133;49.486;12.176;2022-07-03T06:52:41;97706.47;;;24.98;47.20
29045;BME280;16133;49.486;12.176;2022-07-03T06:55:06;97703.72;;;24.93;48.92
29045;BME280;16133;49.486;12.176;2022-07-03T06:57:32;97694.63;;;24.77;49.08
29045;BME280;16133;49.486;12.176;2022-07-03T06:59:57;97701.41;;;24.75;48.80
29045;BME280;16133;49.486;12.176;2022-07-03T07:02:22;97701.09;;;24.66;48.88
29045;BME280;16133;49.486;12.176;2022-07-03T07:04:48;97700.16;;;24.51;49.02
29045;BME280;16133;49.486;12.176;2022-07-03T07:07:14;97700.41;;;24.44;48.95
29045;BME280;16133;49.486;12.176;2022-07-03T07:09:39;97700.13;;;24.41;50.07
29045;BME280;16133;49.486;12.176;2022-07-03T07:12:05;97694.13;;;24.39;49.34
29045;BME280;16133;49.486;12.176;2022-07-03T07:14:31;97700.84;;;24.31;49.90
29045;BME280;16133;49.486;12.176;2022-07-03T07:16:56;97695.13;;;24.27;49.77
29045;BME280;16133;49.486;12.176;2022-07-03T07:19:22;97704.09;;;24.28;50.31
29045;BME280;16133;49.486;12.176;2022-07-03T07:21:47;97704.09;;;24.28;50.37
29045;BME280;16133;49.486;12.176;2022-07-03T07:24:12;97701.94;;;24.30;50.58
29045;BME280;16133;49.486;12.176;2022-07-03T07:26:38;97697.06;;;24.32;51.01
29045;BME280;16133;49.486;12.176;2022-07-03T07:29:03;97701.97;;;24.35;50.64
29045;BME280;16133;49.486;12.176;2022-07-03T07:31:29;97695.75;;;24.40;49.74
29045;BME280;16133;49.486;12.176;2022-07-03T07:33:54;97691.13;;;24.35;50.70
29045;BME280;16133;49.486;12.176;2022-07-03T07:36:20;97694.91;;;24.34;50.85
29045;BME280;16133;49.486;12.176;2022-07-03T07:38:45;97691.50;;;24.49;50.17
29045;BME280;16133;49.486;12.176;2022-07-03T07:41:10;97682.19;;;24.40;50.62
29045;BME280;16133;49.486;12.176;2022-07-03T07:43:36;97689.56;;;24.44;50.77
29045;BME280;16133;49.486;12.176;2022-07-03T07:46:01;97693.34;;;24.43;50.48
29045;BME280;16133;49.486;12.176;2022-07-03T07:48:26;97691.69;;;24.37;50.62
29045;BME280;16133;49.486;12.176;2022-07-03T07:50:52;97685.44;;;24.37;51.21
29045;BME280;16133;49.486;12.176;2022-07-03T07:53:18;97683.53;;;24.37;50.64
29045;BME280;16133;49.486;12.176;2022-07-03T07:55:43;97690.00;;;24.31;50.26
29045;BME280;16133;49.486;12.176;2022-07-03T07:58:08;97676.09;;;24.22;50.72
29045;BME280;16133;49.486;12.176;2022-07-03T08:00:34;97683.47;;;24.27;51.58
29045;BME280;16133;49.486;12.176;2022-07-03T08:03:00;97680.03;;;24.42;51.11
29045;BME280;16133;49.486;12.176;2022-07-03T08:05:45;97681.09;;;24.36;51.45
29045;BME280;16133;49.486;12.176;2022-07-03T08:08:15;97674.53;;;24.32;51.22
29045;BME280;16133;49.486;12.176;2022-07-03T08:10:43;97673.53;;;24.38;51.12
29045;BME280;16133;49.486;12.176;2022-07-03T08:13:10;97670.75;;;24.33;51.45
29045;BME280;16133;49.486;12.176;2022-07-03T08:15:37;97668.53;;;24.24;51.34
29045;BME280;16133;49.486;12.176;2022-07-03T08:18:03;97672.13;;;24.35;50.88
29045;BME280;16133;49.486;12.176;2022-07-03T08:20:28;97668.88;;;24.38;51.52
29045;BME280;16133;49.486;12.176;2022-07-03T08:22:54;97671.06;;;24.36;51.77
29045;BME280;16133;49.486;12.176;2022-07-03T08:25:20;97669.13;;;24.32;51.69
29045;BME280;16133;49.486;12.176;2022-07-03T08:27:45;97665.81;;;24.24;52.59
29045;BME280;16133;49.486;12.176;2022-07-03T08:30:11;97666.88;;;24.23;51.97
29045;BME280;16133;49.486;12.176;2022-07-03T08:32:39;97661.56;;;24.39;52.73
29045;BME280;16133;49.486;12.176;2022-07-03T08:35:04;97661.84;;;24.37;52.39
29045;BME280;16133;49.486;12.176;2022-07-03T08:37:30;97659.16;;;24.42;52.55
29045;BME280;16133;49.486;12.176;2022-07-03T08:39:56;97659.09;;;24.32;52.56
29045;BME280;16133;49.486;12.176;2022-07-03T08:42:22;97650.91;;;24.27;52.44
29045;BME280;16133;49.486;12.176;2022-07-03T08:44:49;97650.66;;;24.28;52.17
29045;BME280;16133;49.486;12.176;2022-07-03T08:47:16;97652.31;;;24.35;52.45
29045;BME280;16133;49.486;12.176;2022-07-03T08:49:42;97642.81;;;24.32;52.96
29045;BME280;16133;49.486;12.176;2022-07-03T08:52:08;97637.16;;;24.39;52.87
29045;BME280;16133;49.486;12.176;2022-07-03T08:54:35;97645.03;;;24.40;53.63
29045;BME280;16133;49.486;12.176;2022-07-03T08:57:00;97639.66;;;24.50;52.92
29045;BME280;16133;49.486;12.176;2022-07-03T08:59:34;97642.66;;;24.49;52.77
29045;BME280;16133;49.486;12.176;2022-07-03T09:02:02;97649.19;;;24.53;52.25
29045;BME280;16133;49.486;12.176;2022-07-03T09:04:30;97642.94;;;24.57;52.60
29045;BME280;16133;49.486;12.176;2022-07-03T09:06:55;97641.63;;;24.65;51.44
29045;BME280;16133;49.486;12.176;2022-07-03T09:09:22;97646.50;;;24.58;51.06
29045;BME280;16133;49.486;12.176;2022-07-03T09:11:47;97642.75;;;24.64;52.04
29045;BME280;16133;49.486;12.176;2022-07-03T09:14:13;97637.38;;;24.79;51.57
29045;BME280;16133;49.486;12.176;2022-07-03T09:16:38;97639.34;;;24.89;51.22
29045;BME280;16133;49.486;12.176;2022-07-03T09:19:04;97639.56;;;24.82;52.13
29045;BME280;16133;49.486;12.176;2022-07-03T09:21:40;97634.88;;;24.72;51.63
29045;BME280;16133;49.486;12.176;2022-07-03T09:24:09;97623.28;;;24.82;52.81
29045;BME280;16133;49.486;12.176;2022-07-03T09:26:36;97629.59;;;24.93;51.74
29045;BME280;16133;49.486;12.176;2022-07-03T09:29:02;97636.16;;;25.02;51.17
29045;BME280;16133;49.486;12.176;2022-07-03T09:31:30;97623.97;;;25.19;50.49
29045;BME280;16133;49.486;12.176;2022-07-03T09:33:56;97633.75;;;25.10;49.37
29045;BME280;16133;49.486;12.176;2022-07-03T09:36:46;97628.78;;;24.97;49.07
29045;BME280;16133;49.486;12.176;2022-07-03T09:39:31;97630.44;;;24.98;50.17
29045;BME280;16133;49.486;12.176;2022-07-03T09:47:09;97624.50;;;25.11;49.91
29045;BME280;16133;49.486;12.176;2022-07-03T09:54:59;97606.06;;;25.34;49.78
29045;BME280;16133;49.486;12.176;2022-07-03T09:57:29;97606.34;;;25.32;49.21
29045;BME280;16133;49.486;12.176;2022-07-03T10:00:14;97609.91;;;25.48;48.94
29045;BME280;16133;49.486;12.176;2022-07-03T10:03:08;97611.31;;;25.81;47.95
29045;BME280;16133;49.486;12.176;2022-07-03T10:05:42;97607.50;;;25.92;47.29
29045;BME280;16133;49.486;12.176;2022-07-03T10:08:12;97612.41;;;26.05;47.03
29045;BME280;16133;49.486;12.176;2022-07-03T10:10:42;97587.63;;;26.06;46.38
29045;BME280;16133;49.486;12.176;2022-07-03T10:13:09;97609.13;;;26.33;46.11
29045;BME280;16133;49.486;12.176;2022-07-03T10:15:36;97608.25;;;26.53;47.65
29045;BME280;16133;49.486;12.176;2022-07-03T10:18:07;97592.34;;;26.80;47.15
29045;BME280;16133;49.486;12.176;2022-07-03T10:20:46;97596.22;;;27.28;45.92
29045;BME280;16133;49.486;12.176;2022-07-03T10:23:12;97587.28;;;27.67;45.45
29045;BME280;16133;49.486;12.176;2022-07-03T10:25:43;97594.03;;;28.03;43.25
29045;BME280;16133;49.486;12.176;2022-07-03T10:28:13;97586.94;;;28.02;45.03
29045;BME280;16133;49.486;12.176;2022-07-03T10:30:39;97593.31;;;28.50;44.34
29045;BME280;16133;49.486;12.176;2022-07-03T10:33:06;97583.28;;;28.69;43.02
29045;BME280;16133;49.486;12.176;2022-07-03T10:41:01;97579.16;;;29.14;41.00
29045;BME280;16133;49.486;12.176;2022-07-03T10:43:47;97575.16;;;29.07;41.87
29045;BME280;16133;49.486;12.176;2022-07-03T10:46:32;97581.69;;;28.87;39.30
29045;BME280;16133;49.486;12.176;2022-07-03T10:49:04;97571.47;;;28.50;39.35
29045;BME280;16133;49.486;12.176;2022-07-03T10:59:22;97558.56;;;28.08;42.70
29045;BME280;16133;49.486;12.176;2022-07-03T11:01:48;97569.34;;;28.18;43.97
29045;BME280;16133;49.486;12.176;2022-07-03T11:04:13;97573.34;;;28.31;41.69
29045;BME280;16133;49.486;12.176;2022-07-03T11:09:09;97567.56;;;28.03;43.70
29045;BME280;16133;49.486;12.176;2022-07-03T11:11:47;97568.78;;;27.92;42.89
29045;BME280;16133;49.486;12.176;2022-07-03T11:14:26;97552.06;;;27.70;42.92
29045;BME280;16133;49.486;12.176;2022-07-03T11:17:20;97559.53;;;27.88;41.01
29045;BME280;16133;49.486;12.176;2022-07-03T11:19:48;97550.72;;;27.96;42.45
29045;BME280;16133;49.486;12.176;2022-07-03T11:22:51;97556.06;;;28.12;42.26
29045;BME280;16133;49.486;12.176;2022-07-03T11:25:17;97549.94;;;28.25;42.38
29045;BME280;16133;49.486;12.176;2022-07-03T11:27:42;97544.47;;;28.25;42.25
29045;BME280;16133;49.486;12.176;2022-07-03T11:30:07;97541.97;;;28.28;42.19
29045;BME280;16133;49.486;12.176;2022-07-03T11:32:46;97527.13;;;28.39;43.13
29045;BME280;16133;49.486;12.176;2022-07-03T11:38:09;97523.25;;;28.64;42.46
29045;BME280;16133;49.486;12.176;2022-07-03T11:40:36;97519.56;;;28.55;41.33
29045;BME280;16133;49.486;12.176;2022-07-03T11:43:05;97509.06;;;28.43;40.91
29045;BME280;16133;49.486;12.176;2022-07-03T11:45:31;97521.44;;;28.36;41.61
29045;BME280;16133;49.486;12.176;2022-07-03T11:47:56;97515.47;;;28.29;41.64
29045;BME280;16133;49.486;12.176;2022-07-03T11:50:39;97507.59;;;28.27;39.66
29045;BME280;16133;49.486;12.176;2022-07-03T11:55:55;97506.31;;;28.20;39.51
29045;BME280;16133;49.486;12.176;2022-07-03T11:58:21;97505.28;;;28.16;39.79
29045;BME280;16133;49.486;12.176;2022-07-03T12:00:47;97505.78;;;28.18;40.92
29045;BME280;16133;49.486;12.176;2022-07-03T12:03:21;97505.97;;;28.26;38.86
29045;BME280;16133;49.486;12.176;2022-07-03T12:05:56;97508.66;;;28.31;39.10
29045;BME280;16133;49.486;12.176;2022-07-03T12:08:32;97497.13;;;28.34;38.95
29045;BME280;16133;49.486;12.176;2022-07-03T12:11:17;97499.22;;;28.42;39.58
29045;BME280;16133;49.486;12.176;2022-07-03T12:13:43;97485.09;;;28.59;39.55
29045;BME280;16133;49.486;12.176;2022-07-03T12:16:11;97495.44;;;28.62;38.99
29045;BME280;16133;49.486;12.176;2022-07-03T12:18:53;97496.19;;;28.86;37.87
29045;BME280;16133;49.486;12.176;2022-07-03T12:21:21;97488.25;;;29.09;37.67
29045;BME280;16133;49.486;12.176;2022-07-03T12:23:55;97491.78;;;29.47;37.56
29045;BME280;16133;49.486;12.176;2022-07-03T12:26:28;97487.47;;;29.73;37.33
29045;BME280;16133;49.486;12.176;2022-07-03T12:28:56;97487.00;;;29.84;36.06
29045;BME280;16133;49.486;12.176;2022-07-03T12:31:22;97486.59;;;29.77;36.42
29045;BME280;16133;49.486;12.176;2022-07-03T12:33:47;97478.16;;;29.74;36.47
29045;BME280;16133;49.486;12.176;2022-07-03T12:36:13;97471.06;;;29.73;36.24
29045;BME280;16133;49.486;12.176;2022-07-03T12:38:38;97476.75;;;29.76;36.29
29045;BME280;16133;49.486;12.176;2022-07-03T12:41:07;97459.91;;;29.69;36.95
29045;BME280;16133;49.486;12.176;2022-07-03T12:43:39;97471.06;;;29.73;36.55
29045;BME280;16133;49.486;12.176;2022-07-03T12:46:34;97465.47;;;29.64;35.93
29045;BME280;16133;49.486;12.176;2022-07-03T12:49:08;97458.16;;;29.46;35.24
29045;BME280;16133;49.486;12.176;2022-07-03T12:51:41;97455.72;;;29.26;34.91
29045;BME280;16133;49.486;12.176;2022-07-03T12:54:08;97450.31;;;29.21;35.11
29045;BME280;16133;49.486;12.176;2022-07-03T12:56:33;97436.81;;;29.11;35.17
29045;BME280;16133;49.486;12.176;2022-07-03T12:58:59;97440.56;;;29.01;34.13
29045;BME280;16133;49.486;12.176;2022-07-03T13:01:59;97428.94;;;28.90;34.79
29045;BME280;16133;49.486;12.176;2022-07-03T13:07:10;97435.88;;;29.02;36.72
29045;BME280;16133;49.486;12.176;2022-07-03T13:09:36;97449.75;;;29.24;34.92
29045;BME280;16133;49.486;12.176;2022-07-03T13:12:03;97426.94;;;29.15;35.18
29045;BME280;16133;49.486;12.176;2022-07-03T13:14:29;97438.88;;;29.19;35.31
29045;BME280;16133;49.486;12.176;2022-07-03T13:16:56;97437.69;;;29.25;35.37
29045;BME280;16133;49.486;12.176;2022-07-03T13:19:23;97432.69;;;29.32;35.24
29045;BME280;16133;49.486;12.176;2022-07-03T13:21:51;97429.50;;;29.43;35.09
29045;BME280;16133;49.486;12.176;2022-07-03T13:24:17;97426.97;;;29.61;34.90
29045;BME280;16133;49.486;12.176;2022-07-03T13:26:43;97423.75;;;29.72;34.55
29045;BME280;16133;49.486;12.176;2022-07-03T13:29:09;97416.81;;;29.94;33.27
29045;BME280;16133;49.486;12.176;2022-07-03T13:31:34;97432.31;;;29.98;33.90
29045;BME280;16133;49.486;12.176;2022-07-03T13:34:00;97422.91;;;30.04;33.91
29045;BME280;16133;49.486;12.176;2022-07-03T13:36:27;97429.47;;;30.17;32.35
29045;BME280;16133;49.486;12.176;2022-07-03T13:38:52;97429.69;;;30.07;33.10
29045;BME280;16133;49.486;12.176;2022-07-03T13:41:18;97434.94;;;30.17;33.69
29045;BME280;16133;49.486;12.176;2022-07-03T13:43:46;97429.06;;;30.23;33.71
29045;BME280;16133;49.486;12.176;2022-07-03T13:46:14;97435.75;;;30.31;32.67
29045;BME280;16133;49.486;12.176;2022-07-03T13:48:39;97422.00;;;30.09;32.49
29045;BME280;16133;49.486;12.176;2022-07-03T13:51:05;97430.28;;;29.90;32.65
29045;BME280;16133;49.486;12.176;2022-07-03T13:53:30;97411.78;;;29.68;33.30
29045;BME280;16133;49.486;12.176;2022-07-03T13:55:55;97430.59;;;29.88;33.44
29045;BME280;16133;49.486;12.176;2022-07-03T13:58:22;97413.88;;;30.04;33.65
29045;BME280;16133;49.486;12.176;2022-07-03T14:00:47;97411.72;;;30.14;33.89